sensor_id;sensor_type;location;lat;lon;timestamp;temperature;humidity
48551;DHT22;34397;51.176;6.738;2023-08-06T00:00:10;17.50;75.00
48551;DHT22;34397;51.176;6.738;2023-08-06T00:02:41;17.50;75.00
48551;DHT22;34397;51.176;6.738;2023-08-06T00:05:15;17.40;74.90
48551;DHT22;34397;51.176;6.738;2023-08-06T00:07:48;17.40;74.80
48551;DHT22;34397;51.176;6.738;2023-08-06T00:10:20;17.40;74.90
48551;DHT22;34397;51.176;6.738;2023-08-06T00:12:51;17.40;74.90
48551;DHT22;34397;51.176;6.738;2023-08-06T00:15:23;17.30;74.80
48551;DHT22;34397;51.176;6.738;2023-08-06T00:17:55;17.30;74.90
48551;DHT22;34397;51.176;6.738;2023-08-06T00:20:28;17.30;74.90
48551;DHT22;34397;51.176;6.738;2023-08-06T00:22:59;17.30;75.20
48551;DHT22;34397;51.176;6.738;2023-08-06T00:25:31;17.20;74.90
48551;DHT22;34397;51.176;6.738;2023-08-06T00:28:03;17.20;75.10
48551;DHT22;34397;51.176;6.738;2023-08-06T00:30:35;17.20;75.10
48551;DHT22;34397;51.176;6.738;2023-08-06T00:33:06;17.20;75.20
48551;DHT22;34397;51.176;6.738;2023-08-06T00:35:39;17.10;75.10
48551;DHT22;34397;51.176;6.738;2023-08-06T00:38:11;17.10;75.20
48551;DHT22;34397;51.176;6.738;2023-08-06T00:40:43;17.10;75.30
48551;DHT22;34397;51.176;6.738;2023-08-06T00:43:14;17.00;75.30
48551;DHT22;34397;51.176;6.738;2023-08-06T00:45:45;17.10;75.40
48551;DHT22;34397;51.176;6.738;2023-08-06T00:48:17;17.10;75.60
48551;DHT22;34397;51.176;6.738;2023-08-06T00:50:50;17.00;75.50
48551;DHT22;34397;51.176;6.738;2023-08-06T00:53:22;17.10;75.80
48551;DHT22;34397;51.176;6.738;2023-08-06T00:55:54;17.10;76.00
48551;DHT22;34397;51.176;6.738;2023-08-06T00:58:26;17.10;76.10
48551;DHT22;34397;51.176;6.738;2023-08-06T01:00:57;17.00;76.10
48551;DHT22;34397;51.176;6.738;2023-08-06T01:03:29;17.10;76.70
48551;DHT22;34397;51.176;6.738;2023-08-06T01:06:02;17.10;76.10
48551;DHT22;34397;51.176;6.738;2023-08-06T01:11:26;17.20;75.90
48551;DHT22;34397;51.176;6.738;2023-08-06T01:14:03;17.20;75.80
48551;DHT22;34397;51.176;6.738;2023-08-06T01:16:38;17.20;75.80
48551;DHT22;34397;51.176;6.738;2023-08-06T01:19:15;17.20;75.70
48551;DHT22;34397;51.176;6.738;2023-08-06T01:21:49;17.20;75.60
48551;DHT22;34397;51.176;6.738;2023-08-06T01:24:20;17.20;75.70
48551;DHT22;34397;51.176;6.738;2023-08-06T01:26:54;17.30;75.60
48551;DHT22;34397;51.176;6.738;2023-08-06T01:29:30;17.30;76.10
48551;DHT22;34397;51.176;6.738;2023-08-06T01:32:04;17.30;75.50
48551;DHT22;34397;51.176;6.738;2023-08-06T01:34:37;17.30;75.30
48551;DHT22;34397;51.176;6.738;2023-08-06T01:37:11;17.30;75.20
48551;DHT22;34397;51.176;6.738;2023-08-06T01:39:43;17.30;75.20
48551;DHT22;34397;51.176;6.738;2023-08-06T01:42:15;17.30;75.00
48551;DHT22;34397;51.176;6.738;2023-08-06T01:44:47;17.30;75.00
48551;DHT22;34397;51.176;6.738;2023-08-06T01:47:18;17.30;75.00
48551;DHT22;34397;51.176;6.738;2023-08-06T01:49:50;17.30;74.90
48551;DHT22;34397;51.176;6.738;2023-08-06T01:52:23;17.30;74.90
48551;DHT22;34397;51.176;6.738;2023-08-06T01:54:55;17.30;74.90
48551;DHT22;34397;51.176;6.738;2023-08-06T01:57:26;17.30;74.80
48551;DHT22;34397;51.176;6.738;2023-08-06T01:59:58;17.30;74.80
48551;DHT22;34397;51.176;6.738;2023-08-06T02:02:30;17.30;74.70
48551;DHT22;34397;51.176;6.738;2023-08-06T02:05:02;17.30;74.70
48551;DHT22;34397;51.176;6.738;2023-08-06T02:07:35;17.30;74.70
48551;DHT22;34397;51.176;6.738;2023-08-06T02:10:07;17.30;74.70
48551;DHT22;34397;51.176;6.738;2023-08-06T02:12:39;17.30;74.80
48551;DHT22;34397;51.176;6.738;2023-08-06T02:15:11;17.30;74.80
48551;DHT22;34397;51.176;6.738;2023-08-06T02:17:42;17.30;74.70
48551;DHT22;34397;51.176;6.738;2023-08-06T02:20:14;17.30;74.80
48551;DHT22;34397;51.176;6.738;2023-08-06T02:22:47;17.30;74.80
48551;DHT22;34397;51.176;6.738;2023-08-06T02:25:19;17.30;74.90
48551;DHT22;34397;51.176;6.738;2023-08-06T02:27:51;17.30;74.90
48551;DHT22;34397;51.176;6.738;2023-08-06T02:30:22;17.20;74.80
48551;DHT22;34397;51.176;6.738;2023-08-06T02:32:54;17.20;74.80
48551;DHT22;34397;51.176;6.738;2023-08-06T02:35:26;17.20;74.90
48551;DHT22;34397;51.176;6.738;2023-08-06T02:37:59;17.20;74.90
48551;DHT22;34397;51.176;6.738;2023-08-06T02:40:30;17.20;74.90
48551;DHT22;34397;51.176;6.738;2023-08-06T02:43:02;17.20;74.90
48551;DHT22;34397;51.176;6.738;2023-08-06T02:45:34;17.20;74.90
48551;DHT22;34397;51.176;6.738;2023-08-06T02:48:05;17.20;74.90
48551;DHT22;34397;51.176;6.738;2023-08-06T02:50:37;17.20;74.90
48551;DHT22;34397;51.176;6.738;2023-08-06T02:53:11;17.20;74.90
48551;DHT22;34397;51.176;6.738;2023-08-06T02:55:45;17.20;74.90
48551;DHT22;34397;51.176;6.738;2023-08-06T02:58:17;17.20;74.90
48551;DHT22;34397;51.176;6.738;2023-08-06T03:00:58;17.20;74.80
48551;DHT22;34397;51.176;6.738;2023-08-06T03:03:31;17.20;74.80
48551;DHT22;34397;51.176;6.738;2023-08-06T03:06:03;17.20;74.90
48551;DHT22;34397;51.176;6.738;2023-08-06T03:08:36;17.20;74.90
48551;DHT22;34397;51.176;6.738;2023-08-06T03:11:08;17.20;75.00
48551;DHT22;34397;51.176;6.738;2023-08-06T03:13:39;17.20;75.00
48551;DHT22;34397;51.176;6.738;2023-08-06T03:16:11;17.20;74.90
48551;DHT22;34397;51.176;6.738;2023-08-06T03:18:43;17.10;74.80
48551;DHT22;34397;51.176;6.738;2023-08-06T03:21:14;17.10;74.90
48551;DHT22;34397;51.176;6.738;2023-08-06T03:23:47;17.10;74.90
48551;DHT22;34397;51.176;6.738;2023-08-06T03:26:19;17.10;75.00
48551;DHT22;34397;51.176;6.738;2023-08-06T03:28:52;17.10;75.10
48551;DHT22;34397;51.176;6.738;2023-08-06T03:31:23;17.10;75.10
48551;DHT22;34397;51.176;6.738;2023-08-06T03:33:55;17.00;75.10
48551;DHT22;34397;51.176;6.738;2023-08-06T03:36:27;17.00;75.20
48551;DHT22;34397;51.176;6.738;2023-08-06T03:39:00;17.10;75.30
48551;DHT22;34397;51.176;6.738;2023-08-06T03:41:31;17.00;75.20
48551;DHT22;34397;51.176;6.738;2023-08-06T03:44:03;17.00;75.30
48551;DHT22;34397;51.176;6.738;2023-08-06T03:46:35;17.00;75.50
48551;DHT22;34397;51.176;6.738;2023-08-06T03:49:06;17.00;75.50
48551;DHT22;34397;51.176;6.738;2023-08-06T03:51:38;17.00;75.40
48551;DHT22;34397;51.176;6.738;2023-08-06T03:54:11;17.00;75.50
48551;DHT22;34397;51.176;6.738;2023-08-06T03:56:43;17.00;75.40
48551;DHT22;34397;51.176;6.738;2023-08-06T03:59:15;17.00;75.50
48551;DHT22;34397;51.176;6.738;2023-08-06T04:01:46;17.00;75.50
48551;DHT22;34397;51.176;6.738;2023-08-06T04:04:18;17.00;75.60
48551;DHT22;34397;51.176;6.738;2023-08-06T04:06:50;17.00;75.50
48551;DHT22;34397;51.176;6.738;2023-08-06T04:09:23;17.00;75.60
48551;DHT22;34397;51.176;6.738;2023-08-06T04:11:55;17.00;75.60
48551;DHT22;34397;51.176;6.738;2023-08-06T04:14:27;17.00;75.70
48551;DHT22;34397;51.176;6.738;2023-08-06T04:16:59;16.90;75.50
48551;DHT22;34397;51.176;6.738;2023-08-06T04:19:30;16.90;75.60
48551;DHT22;34397;51.176;6.738;2023-08-06T04:22:02;17.00;75.60
48551;DHT22;34397;51.176;6.738;2023-08-06T04:24:36;17.00;75.70
48551;DHT22;34397;51.176;6.738;2023-08-06T04:27:07;17.00;75.70
48551;DHT22;34397;51.176;6.738;2023-08-06T04:29:39;17.00;75.60
48551;DHT22;34397;51.176;6.738;2023-08-06T04:32:11;17.00;75.70
48551;DHT22;34397;51.176;6.738;2023-08-06T04:34:44;17.00;75.70
48551;DHT22;34397;51.176;6.738;2023-08-06T04:37:17;17.00;75.70
48551;DHT22;34397;51.176;6.738;2023-08-06T04:39:50;17.00;75.70
48551;DHT22;34397;51.176;6.738;2023-08-06T04:42:22;17.00;75.80
48551;DHT22;34397;51.176;6.738;2023-08-06T04:44:53;17.00;75.70
48551;DHT22;34397;51.176;6.738;2023-08-06T04:47:25;17.00;75.70
48551;DHT22;34397;51.176;6.738;2023-08-06T04:49:57;17.00;75.60
48551;DHT22;34397;51.176;6.738;2023-08-06T04:52:28;17.00;75.60
48551;DHT22;34397;51.176;6.738;2023-08-06T04:55:04;17.00;75.60
48551;DHT22;34397;51.176;6.738;2023-08-06T04:57:36;17.00;75.60
48551;DHT22;34397;51.176;6.738;2023-08-06T05:00:08;16.90;75.50
48551;DHT22;34397;51.176;6.738;2023-08-06T05:02:40;16.90;75.50
48551;DHT22;34397;51.176;6.738;2023-08-06T05:05:12;16.90;75.80
48551;DHT22;34397;51.176;6.738;2023-08-06T05:07:44;16.80;75.60
48551;DHT22;34397;51.176;6.738;2023-08-06T05:10:18;16.80;75.80
48551;DHT22;34397;51.176;6.738;2023-08-06T05:12:49;16.80;75.90
48551;DHT22;34397;51.176;6.738;2023-08-06T05:15:21;16.80;76.00
48551;DHT22;34397;51.176;6.738;2023-08-06T05:17:55;16.80;76.10
48551;DHT22;34397;51.176;6.738;2023-08-06T05:20:27;16.90;76.10
48551;DHT22;34397;51.176;6.738;2023-08-06T05:22:58;16.80;76.10
48551;DHT22;34397;51.176;6.738;2023-08-06T05:25:31;16.90;76.20
48551;DHT22;34397;51.176;6.738;2023-08-06T05:28:05;16.90;76.30
48551;DHT22;34397;51.176;6.738;2023-08-06T05:30:38;17.00;76.30
48551;DHT22;34397;51.176;6.738;2023-08-06T05:33:10;17.00;76.30
48551;DHT22;34397;51.176;6.738;2023-08-06T05:35:42;17.00;76.20
48551;DHT22;34397;51.176;6.738;2023-08-06T05:38:14;17.00;76.20
48551;DHT22;34397;51.176;6.738;2023-08-06T05:40:47;17.00;76.10
48551;DHT22;34397;51.176;6.738;2023-08-06T05:43:19;17.00;76.10
48551;DHT22;34397;51.176;6.738;2023-08-06T05:45:51;17.00;76.10
48551;DHT22;34397;51.176;6.738;2023-08-06T05:48:22;17.10;76.10
48551;DHT22;34397;51.176;6.738;2023-08-06T05:50:55;17.10;76.30
48551;DHT22;34397;51.176;6.738;2023-08-06T05:53:26;17.10;76.10
48551;DHT22;34397;51.176;6.738;2023-08-06T05:55:59;17.10;76.10
48551;DHT22;34397;51.176;6.738;2023-08-06T05:58:31;17.20;76.10
48551;DHT22;34397;51.176;6.738;2023-08-06T06:01:03;17.20;76.10
48551;DHT22;34397;51.176;6.738;2023-08-06T06:03:35;17.20;75.90
48551;DHT22;34397;51.176;6.738;2023-08-06T06:06:06;17.30;76.00
48551;DHT22;34397;51.176;6.738;2023-08-06T06:08:38;17.30;75.90
48551;DHT22;34397;51.176;6.738;2023-08-06T06:11:11;17.30;75.80
48551;DHT22;34397;51.176;6.738;2023-08-06T06:13:43;17.30;75.80
48551;DHT22;34397;51.176;6.738;2023-08-06T06:16:14;17.30;75.70
48551;DHT22;34397;51.176;6.738;2023-08-06T06:18:46;17.40;75.70
48551;DHT22;34397;51.176;6.738;2023-08-06T06:21:18;17.40;75.70
48551;DHT22;34397;51.176;6.738;2023-08-06T06:23:49;17.40;75.60
48551;DHT22;34397;51.176;6.738;2023-08-06T06:26:23;17.40;75.50
48551;DHT22;34397;51.176;6.738;2023-08-06T06:28:54;17.50;75.40
48551;DHT22;34397;51.176;6.738;2023-08-06T06:31:26;17.50;75.40
48551;DHT22;34397;51.176;6.738;2023-08-06T06:33:58;17.50;75.20
48551;DHT22;34397;51.176;6.738;2023-08-06T06:36:29;17.50;75.10
48551;DHT22;34397;51.176;6.738;2023-08-06T06:39:01;17.50;75.10
48551;DHT22;34397;51.176;6.738;2023-08-06T06:41:34;17.50;75.00
48551;DHT22;34397;51.176;6.738;2023-08-06T06:44:06;17.60;75.10
48551;DHT22;34397;51.176;6.738;2023-08-06T06:46:37;17.50;75.00
48551;DHT22;34397;51.176;6.738;2023-08-06T06:49:09;17.50;75.10
48551;DHT22;34397;51.176;6.738;2023-08-06T06:51:41;17.50;75.10
48551;DHT22;34397;51.176;6.738;2023-08-06T06:54:13;17.50;75.10
48551;DHT22;34397;51.176;6.738;2023-08-06T06:56:46;17.50;75.30
48551;DHT22;34397;51.176;6.738;2023-08-06T06:59:17;17.60;75.60
48551;DHT22;34397;51.176;6.738;2023-08-06T07:01:49;17.60;75.50
48551;DHT22;34397;51.176;6.738;2023-08-06T07:04:21;17.60;75.50
48551;DHT22;34397;51.176;6.738;2023-08-06T07:06:52;17.70;75.50
48551;DHT22;34397;51.176;6.738;2023-08-06T07:09:24;17.70;75.50
48551;DHT22;34397;51.176;6.738;2023-08-06T07:11:57;17.80;75.50
48551;DHT22;34397;51.176;6.738;2023-08-06T07:14:29;17.80;75.40
48551;DHT22;34397;51.176;6.738;2023-08-06T07:17:00;17.90;75.40
48551;DHT22;34397;51.176;6.738;2023-08-06T07:19:32;17.90;75.20
48551;DHT22;34397;51.176;6.738;2023-08-06T07:22:04;17.90;75.10
48551;DHT22;34397;51.176;6.738;2023-08-06T07:24:36;17.90;75.00
48551;DHT22;34397;51.176;6.738;2023-08-06T07:27:09;18.00;75.00
48551;DHT22;34397;51.176;6.738;2023-08-06T07:29:41;18.00;74.90
48551;DHT22;34397;51.176;6.738;2023-08-06T07:32:12;18.00;74.80
48551;DHT22;34397;51.176;6.738;2023-08-06T07:34:44;18.00;74.70
48551;DHT22;34397;51.176;6.738;2023-08-06T07:37:16;18.00;74.60
48551;DHT22;34397;51.176;6.738;2023-08-06T07:39:48;18.00;74.50
48551;DHT22;34397;51.176;6.738;2023-08-06T07:42:21;18.00;74.40
48551;DHT22;34397;51.176;6.738;2023-08-06T07:44:53;18.00;74.40
48551;DHT22;34397;51.176;6.738;2023-08-06T07:47:26;17.90;74.40
48551;DHT22;34397;51.176;6.738;2023-08-06T07:49:58;17.90;75.30
48551;DHT22;34397;51.176;6.738;2023-08-06T07:52:29;17.90;75.00
48551;DHT22;34397;51.176;6.738;2023-08-06T07:55:01;17.90;74.80
48551;DHT22;34397;51.176;6.738;2023-08-06T07:57:36;18.00;75.10
48551;DHT22;34397;51.176;6.738;2023-08-06T08:00:08;18.00;75.00
48551;DHT22;34397;51.176;6.738;2023-08-06T08:02:41;18.10;75.10
48551;DHT22;34397;51.176;6.738;2023-08-06T08:05:12;18.10;74.80
48551;DHT22;34397;51.176;6.738;2023-08-06T08:07:44;18.10;74.70
48551;DHT22;34397;51.176;6.738;2023-08-06T08:10:16;18.20;74.70
48551;DHT22;34397;51.176;6.738;2023-08-06T08:12:49;18.20;74.60
48551;DHT22;34397;51.176;6.738;2023-08-06T08:15:21;18.30;74.50
48551;DHT22;34397;51.176;6.738;2023-08-06T08:17:52;18.30;74.50
48551;DHT22;34397;51.176;6.738;2023-08-06T08:20:24;18.40;74.30
48551;DHT22;34397;51.176;6.738;2023-08-06T08:22:58;18.40;74.20
48551;DHT22;34397;51.176;6.738;2023-08-06T08:25:30;18.50;74.40
48551;DHT22;34397;51.176;6.738;2023-08-06T08:28:04;18.50;74.50
48551;DHT22;34397;51.176;6.738;2023-08-06T08:30:35;18.60;74.60
48551;DHT22;34397;51.176;6.738;2023-08-06T08:33:07;18.60;74.60
48551;DHT22;34397;51.176;6.738;2023-08-06T08:35:39;18.70;74.60
48551;DHT22;34397;51.176;6.738;2023-08-06T08:38:10;18.80;74.30
48551;DHT22;34397;51.176;6.738;2023-08-06T08:40:44;18.90;73.80
48551;DHT22;34397;51.176;6.738;2023-08-06T08:43:18;19.00;73.60
48551;DHT22;34397;51.176;6.738;2023-08-06T08:45:51;19.00;73.60
48551;DHT22;34397;51.176;6.738;2023-08-06T08:48:25;19.10;73.50
48551;DHT22;34397;51.176;6.738;2023-08-06T08:50:58;19.20;73.60
48551;DHT22;34397;51.176;6.738;2023-08-06T08:53:30;19.20;73.30
48551;DHT22;34397;51.176;6.738;2023-08-06T08:56:03;19.30;72.60
48551;DHT22;34397;51.176;6.738;2023-08-06T08:58:37;19.30;72.10
48551;DHT22;34397;51.176;6.738;2023-08-06T09:01:09;19.40;71.90
48551;DHT22;34397;51.176;6.738;2023-08-06T09:03:40;19.30;71.90
48551;DHT22;34397;51.176;6.738;2023-08-06T09:06:12;19.30;71.50
48551;DHT22;34397;51.176;6.738;2023-08-06T09:08:47;19.30;71.20
48551;DHT22;34397;51.176;6.738;2023-08-06T09:11:21;19.30;71.30
48551;DHT22;34397;51.176;6.738;2023-08-06T09:13:54;19.30;71.50
48551;DHT22;34397;51.176;6.738;2023-08-06T09:16:26;19.20;71.40
48551;DHT22;34397;51.176;6.738;2023-08-06T09:19:00;19.30;71.50
48551;DHT22;34397;51.176;6.738;2023-08-06T09:21:38;19.30;71.70
48551;DHT22;34397;51.176;6.738;2023-08-06T09:24:10;19.40;71.40
48551;DHT22;34397;51.176;6.738;2023-08-06T09:26:44;19.40;70.50
48551;DHT22;34397;51.176;6.738;2023-08-06T09:29:17;19.40;70.30
48551;DHT22;34397;51.176;6.738;2023-08-06T09:31:49;19.30;70.70
48551;DHT22;34397;51.176;6.738;2023-08-06T09:34:22;19.10;70.80
48551;DHT22;34397;51.176;6.738;2023-08-06T09:36:54;18.90;70.60
48551;DHT22;34397;51.176;6.738;2023-08-06T09:39:26;18.70;71.60
48551;DHT22;34397;51.176;6.738;2023-08-06T09:41:59;18.40;71.60
48551;DHT22;34397;51.176;6.738;2023-08-06T09:44:33;18.30;72.40
48551;DHT22;34397;51.176;6.738;2023-08-06T09:47:05;18.00;73.60
48551;DHT22;34397;51.176;6.738;2023-08-06T09:49:40;17.80;74.50
48551;DHT22;34397;51.176;6.738;2023-08-06T09:52:13;17.70;75.60
48551;DHT22;34397;51.176;6.738;2023-08-06T09:54:46;17.40;75.70
48551;DHT22;34397;51.176;6.738;2023-08-06T09:57:19;17.30;76.70
48551;DHT22;34397;51.176;6.738;2023-08-06T09:59:52;17.20;77.10
48551;DHT22;34397;51.176;6.738;2023-08-06T10:02:24;17.20;77.10
48551;DHT22;34397;51.176;6.738;2023-08-06T10:04:57;17.10;77.80
48551;DHT22;34397;51.176;6.738;2023-08-06T10:07:30;17.00;78.10
48551;DHT22;34397;51.176;6.738;2023-08-06T10:10:02;17.00;77.60
48551;DHT22;34397;51.176;6.738;2023-08-06T10:12:34;17.00;78.10
48551;DHT22;34397;51.176;6.738;2023-08-06T10:15:12;17.00;78.30
48551;DHT22;34397;51.176;6.738;2023-08-06T10:17:45;17.00;78.10
48551;DHT22;34397;51.176;6.738;2023-08-06T10:20:18;17.00;78.50
48551;DHT22;34397;51.176;6.738;2023-08-06T10:22:59;17.00;78.30
48551;DHT22;34397;51.176;6.738;2023-08-06T10:25:32;17.00;78.40
48551;DHT22;34397;51.176;6.738;2023-08-06T10:28:09;17.00;78.30
48551;DHT22;34397;51.176;6.738;2023-08-06T10:30:43;17.00;78.20
48551;DHT22;34397;51.176;6.738;2023-08-06T10:33:16;17.00;78.40
48551;DHT22;34397;51.176;6.738;2023-08-06T10:35:51;16.90;78.40
48551;DHT22;34397;51.176;6.738;2023-08-06T10:38:24;16.80;78.70
48551;DHT22;34397;51.176;6.738;2023-08-06T10:41:02;16.70;79.10
48551;DHT22;34397;51.176;6.738;2023-08-06T10:43:35;16.60;78.90
48551;DHT22;34397;51.176;6.738;2023-08-06T10:46:10;16.60;79.50
48551;DHT22;34397;51.176;6.738;2023-08-06T10:48:43;16.50;79.60
48551;DHT22;34397;51.176;6.738;2023-08-06T10:51:16;16.50;79.30
48551;DHT22;34397;51.176;6.738;2023-08-06T10:53:49;16.40;79.50
48551;DHT22;34397;51.176;6.738;2023-08-06T10:56:22;16.40;79.60
48551;DHT22;34397;51.176;6.738;2023-08-06T10:58:56;16.40;79.50
48551;DHT22;34397;51.176;6.738;2023-08-06T11:01:29;16.40;80.20
48551;DHT22;34397;51.176;6.738;2023-08-06T11:04:01;16.40;79.20
48551;DHT22;34397;51.176;6.738;2023-08-06T11:06:35;16.40;79.40
48551;DHT22;34397;51.176;6.738;2023-08-06T11:09:07;16.40;79.30
48551;DHT22;34397;51.176;6.738;2023-08-06T11:11:38;16.40;79.30
48551;DHT22;34397;51.176;6.738;2023-08-06T11:14:14;16.40;79.60
48551;DHT22;34397;51.176;6.738;2023-08-06T11:16:47;16.30;79.50
48551;DHT22;34397;51.176;6.738;2023-08-06T11:19:20;16.40;79.40
48551;DHT22;34397;51.176;6.738;2023-08-06T11:21:54;16.30;79.60
48551;DHT22;34397;51.176;6.738;2023-08-06T11:24:26;16.30;79.60
48551;DHT22;34397;51.176;6.738;2023-08-06T11:26:57;16.20;79.60
48551;DHT22;34397;51.176;6.738;2023-08-06T11:29:29;16.20;79.60
48551;DHT22;34397;51.176;6.738;2023-08-06T11:32:04;16.20;79.90
48551;DHT22;34397;51.176;6.738;2023-08-06T11:34:36;16.10;80.10
48551;DHT22;34397;51.176;6.738;2023-08-06T11:37:08;16.10;80.10
48551;DHT22;34397;51.176;6.738;2023-08-06T11:39:47;16.10;80.40
48551;DHT22;34397;51.176;6.738;2023-08-06T11:42:19;16.00;80.40
48551;DHT22;34397;51.176;6.738;2023-08-06T11:44:51;16.00;80.70
48551;DHT22;34397;51.176;6.738;2023-08-06T11:47:24;16.00;80.90
48551;DHT22;34397;51.176;6.738;2023-08-06T11:49:55;15.90;80.30
48551;DHT22;34397;51.176;6.738;2023-08-06T11:52:27;15.90;80.90
48551;DHT22;34397;51.176;6.738;2023-08-06T11:55:00;15.90;80.70
48551;DHT22;34397;51.176;6.738;2023-08-06T11:57:33;15.90;80.80
48551;DHT22;34397;51.176;6.738;2023-08-06T12:00:06;15.90;80.80
48551;DHT22;34397;51.176;6.738;2023-08-06T12:02:40;16.00;80.70
48551;DHT22;34397;51.176;6.738;2023-08-06T12:05:13;16.00;80.90
48551;DHT22;34397;51.176;6.738;2023-08-06T12:07:46;16.00;80.70
48551;DHT22;34397;51.176;6.738;2023-08-06T12:10:19;15.90;80.50
48551;DHT22;34397;51.176;6.738;2023-08-06T12:12:51;16.00;80.70
48551;DHT22;34397;51.176;6.738;2023-08-06T12:15:23;16.00;80.60
48551;DHT22;34397;51.176;6.738;2023-08-06T12:17:56;16.00;80.40
48551;DHT22;34397;51.176;6.738;2023-08-06T12:20:28;16.10;80.30
48551;DHT22;34397;51.176;6.738;2023-08-06T12:23:00;16.10;80.30
48551;DHT22;34397;51.176;6.738;2023-08-06T12:25:32;16.10;80.00
48551;DHT22;34397;51.176;6.738;2023-08-06T12:28:04;16.10;80.00
48551;DHT22;34397;51.176;6.738;2023-08-06T12:30:36;16.10;79.80
48551;DHT22;34397;51.176;6.738;2023-08-06T12:33:13;16.20;79.70
48551;DHT22;34397;51.176;6.738;2023-08-06T12:35:44;16.20;79.80
48551;DHT22;34397;51.176;6.738;2023-08-06T12:38:16;16.20;79.70
48551;DHT22;34397;51.176;6.738;2023-08-06T12:40:48;16.30;79.70
48551;DHT22;34397;51.176;6.738;2023-08-06T12:43:19;16.30;79.50
48551;DHT22;34397;51.176;6.738;2023-08-06T12:45:51;16.30;79.30
48551;DHT22;34397;51.176;6.738;2023-08-06T12:48:24;16.30;79.10
48551;DHT22;34397;51.176;6.738;2023-08-06T12:50:56;16.30;79.10
48551;DHT22;34397;51.176;6.738;2023-08-06T12:53:27;16.30;79.10
48551;DHT22;34397;51.176;6.738;2023-08-06T12:55:59;16.40;78.90
48551;DHT22;34397;51.176;6.738;2023-08-06T12:58:31;16.40;78.90
48551;DHT22;34397;51.176;6.738;2023-08-06T13:01:02;16.40;78.50
48551;DHT22;34397;51.176;6.738;2023-08-06T13:03:35;16.40;78.40
48551;DHT22;34397;51.176;6.738;2023-08-06T13:06:07;16.50;78.20
48551;DHT22;34397;51.176;6.738;2023-08-06T13:08:39;16.50;78.10
48551;DHT22;34397;51.176;6.738;2023-08-06T13:11:11;16.50;77.90
48551;DHT22;34397;51.176;6.738;2023-08-06T13:13:43;16.50;77.80
48551;DHT22;34397;51.176;6.738;2023-08-06T13:16:14;16.50;77.60
48551;DHT22;34397;51.176;6.738;2023-08-06T13:18:48;16.50;77.30
48551;DHT22;34397;51.176;6.738;2023-08-06T13:21:19;16.50;76.80
48551;DHT22;34397;51.176;6.738;2023-08-06T13:23:51;16.50;76.60
48551;DHT22;34397;51.176;6.738;2023-08-06T13:26:23;16.60;77.00
48551;DHT22;34397;51.176;6.738;2023-08-06T13:28:55;16.60;76.90
48551;DHT22;34397;51.176;6.738;2023-08-06T13:31:27;16.60;76.60
48551;DHT22;34397;51.176;6.738;2023-08-06T13:34:01;16.60;75.70
48551;DHT22;34397;51.176;6.738;2023-08-06T13:36:33;16.60;76.50
48551;DHT22;34397;51.176;6.738;2023-08-06T13:39:06;16.60;76.40
48551;DHT22;34397;51.176;6.738;2023-08-06T13:41:38;16.70;76.40
48551;DHT22;34397;51.176;6.738;2023-08-06T13:44:11;16.70;76.30
48551;DHT22;34397;51.176;6.738;2023-08-06T13:46:44;16.80;76.10
48551;DHT22;34397;51.176;6.738;2023-08-06T13:49:17;16.70;76.10
48551;DHT22;34397;51.176;6.738;2023-08-06T13:51:49;16.70;76.10
48551;DHT22;34397;51.176;6.738;2023-08-06T13:54:20;16.70;76.00
48551;DHT22;34397;51.176;6.738;2023-08-06T13:56:52;16.70;76.00
48551;DHT22;34397;51.176;6.738;2023-08-06T13:59:24;16.70;76.20
48551;DHT22;34397;51.176;6.738;2023-08-06T14:01:56;16.70;76.30
48551;DHT22;34397;51.176;6.738;2023-08-06T14:04:31;16.70;76.50
48551;DHT22;34397;51.176;6.738;2023-08-06T14:07:03;16.70;76.50
48551;DHT22;34397;51.176;6.738;2023-08-06T14:09:35;16.70;76.70
48551;DHT22;34397;51.176;6.738;2023-08-06T14:12:06;16.70;76.70
48551;DHT22;34397;51.176;6.738;2023-08-06T14:14:38;16.80;76.60
48551;DHT22;34397;51.176;6.738;2023-08-06T14:17:10;16.80;76.60
48551;DHT22;34397;51.176;6.738;2023-08-06T14:19:43;16.80;76.60
48551;DHT22;34397;51.176;6.738;2023-08-06T14:22:15;16.80;77.30
48551;DHT22;34397;51.176;6.738;2023-08-06T14:24:47;16.90;76.60
48551;DHT22;34397;51.176;6.738;2023-08-06T14:27:18;16.90;76.60
48551;DHT22;34397;51.176;6.738;2023-08-06T14:29:50;16.90;77.50
48551;DHT22;34397;51.176;6.738;2023-08-06T14:32:22;16.90;77.20
48551;DHT22;34397;51.176;6.738;2023-08-06T14:34:55;17.00;77.30
48551;DHT22;34397;51.176;6.738;2023-08-06T14:37:26;17.00;77.10
48551;DHT22;34397;51.176;6.738;2023-08-06T14:39:58;17.00;76.80
48551;DHT22;34397;51.176;6.738;2023-08-06T14:42:30;17.10;76.20
48551;DHT22;34397;51.176;6.738;2023-08-06T14:45:02;17.10;76.30
48551;DHT22;34397;51.176;6.738;2023-08-06T14:47:34;17.10;76.40
48551;DHT22;34397;51.176;6.738;2023-08-06T14:50:07;17.10;76.60
48551;DHT22;34397;51.176;6.738;2023-08-06T14:52:39;17.20;76.00
48551;DHT22;34397;51.176;6.738;2023-08-06T14:55:11;17.20;75.90
48551;DHT22;34397;51.176;6.738;2023-08-06T14:57:49;17.20;75.70
48551;DHT22;34397;51.176;6.738;2023-08-06T15:00:21;17.20;75.70
48551;DHT22;34397;51.176;6.738;2023-08-06T15:02:52;17.20;75.90
48551;DHT22;34397;51.176;6.738;2023-08-06T15:05:25;17.30;75.80
48551;DHT22;34397;51.176;6.738;2023-08-06T15:07:57;17.30;75.80
48551;DHT22;34397;51.176;6.738;2023-08-06T15:10:29;17.30;76.80
48551;DHT22;34397;51.176;6.738;2023-08-06T15:13:00;17.30;76.10
48551;DHT22;34397;51.176;6.738;2023-08-06T15:15:33;17.40;75.60
48551;DHT22;34397;51.176;6.738;2023-08-06T15:18:05;17.40;75.30
48551;DHT22;34397;51.176;6.738;2023-08-06T15:20:38;17.30;75.20
48551;DHT22;34397;51.176;6.738;2023-08-06T15:23:09;17.30;75.40
48551;DHT22;34397;51.176;6.738;2023-08-06T15:25:42;17.30;75.40
48551;DHT22;34397;51.176;6.738;2023-08-06T15:28:13;17.30;75.50
48551;DHT22;34397;51.176;6.738;2023-08-06T15:30:48;17.30;75.70
48551;DHT22;34397;51.176;6.738;2023-08-06T15:33:20;17.30;75.80
48551;DHT22;34397;51.176;6.738;2023-08-06T15:35:54;17.30;76.00
48551;DHT22;34397;51.176;6.738;2023-08-06T15:38:25;17.30;75.80
48551;DHT22;34397;51.176;6.738;2023-08-06T15:40:57;17.40;75.60
48551;DHT22;34397;51.176;6.738;2023-08-06T15:43:29;17.40;75.40
48551;DHT22;34397;51.176;6.738;2023-08-06T15:46:01;17.30;75.40
48551;DHT22;34397;51.176;6.738;2023-08-06T15:48:33;17.30;75.40
48551;DHT22;34397;51.176;6.738;2023-08-06T15:51:06;17.30;75.30
48551;DHT22;34397;51.176;6.738;2023-08-06T15:53:38;17.30;75.20
48551;DHT22;34397;51.176;6.738;2023-08-06T15:56:10;17.30;75.20
48551;DHT22;34397;51.176;6.738;2023-08-06T15:58:42;17.30;75.10
48551;DHT22;34397;51.176;6.738;2023-08-06T16:01:13;17.20;75.10
48551;DHT22;34397;51.176;6.738;2023-08-06T16:03:45;17.20;75.20